Latest Coastal Weather Observations for Cooktown

IDQ60701

Issued at 9:51 am EST Wednesday 1 April 2015 (issued every 10 minutes, with the page automatically refreshed every 10 minutes)

About coastal observations | Map of coastal stations | Coastal observations for QLD | Marine services | Other Formats
Station Details ID: 031209 Name: COOKTOWN AIRPORT Lat: -15.45 Lon: 145.19 Height: 4.8 m
Data from the previous 72 hours. | See also: Recent months at Cooktown
Date/Time
EST
Temp

°C
Wind Pressure Rain
since 9am
mm
Weather Cloud Vis
km
Sea
Height
m
Swell
Dir
 
Speed
knots
Gust
knots
hPa Trend Height
m
Period
s
Dir
01/09:30am 28.2 SE 13 19 1013.6 - 0.0 - Cloudy 10 - - - -
01/09:00am 27.1 SE 12 21 1013.5 R 0.8 Fine Cloudy 35 - - - -
01/08:30am 27.7 SE 11 20 1013.3 - 0.8 - Cloudy 10 - - - -
01/08:00am 27.3 SE 11 21 1012.9 - 0.8 - Cloudy 10 - - - -
01/07:30am 26.9 SE 11 19 1012.6 - 0.8 - Cloudy 10 - - - -
01/07:00am 26.9 SE 11 19 1012.4 - 0.8 - Cloudy 10 - - - -
01/06:30am 26.7 SE 11 17 1012.0 - 0.8 - Cloudy 10 - - - -
01/06:00am 26.4 SE 9 16 1011.7 - 0.8 - - 10 - - - -
01/05:30am 26.3 ESE 10 14 1011.6 - 0.8 - - 10 - - - -
01/05:00am 26.5 SE 12 24 1011.2 - 0.8 - - 10 - - - -
01/04:30am 26.5 SE 9 19 1011.1 - 0.8 - - 10 - - - -
01/04:00am 26.4 SE 8 15 1011.1 - 0.8 - Partly cloudy 10 - - - -
01/03:30am 26.3 SE 8 13 1011.2 - 0.8 - Partly cloudy 10 - - - -
01/03:00am 26.1 SE 6 11 1011.4 - 0.8 - Partly cloudy 10 - - - -
01/02:30am 26.6 SE 9 14 1011.8 - 0.8 - - 10 - - - -
01/02:00am 26.8 SE 9 14 1012.0 - 0.8 - Partly cloudy 10 - - - -
01/01:30am 26.9 SE 10 18 1012.5 - 0.8 - Partly cloudy 10 - - - -
01/01:00am 26.9 SE 9 15 1012.9 - 0.8 - Partly cloudy 10 - - - -
01/12:30am 26.9 SE 9 15 1013.2 - 0.8 - Partly cloudy 10 - - - -
01/12:00am 27.0 SE 11 17 1013.6 - 0.8 - Mostly clear 10 - - - -
 
Date/Time
EST
Temp

°C
Wind Pressure Rain
since 9am
mm
Weather Cloud Vis
km
Sea
Height
m
Swell
Dir
 
Speed
knots
Gust
knots
hPa Trend Height
m
Period
s
Dir
31/11:30pm 27.0 SE 11 21 1013.9 - 0.8 - Partly cloudy 10 - - - -
31/11:00pm 27.1 SE 12 18 1013.9 - 0.8 - Partly cloudy 10 - - - -
31/10:30pm 26.9 SE 9 13 1013.9 - 0.8 - Partly cloudy 10 - - - -
31/10:00pm 27.0 ESE 10 17 1013.9 - 0.8 - Partly cloudy 10 - - - -
31/09:30pm 27.1 ESE 10 15 1013.9 - 0.8 - Partly cloudy 10 - - - -
31/09:00pm 27.0 SE 10 16 1013.7 - 0.8 - Mostly clear 10 - - - -
31/08:30pm 27.0 ESE 11 18 1013.6 - 0.8 - Partly cloudy 10 - - - -
31/08:00pm 27.1 ESE 9 15 1013.3 - 0.8 - Partly cloudy 10 - - - -
31/07:30pm 27.0 ESE 9 13 1013.1 - 0.8 - Partly cloudy 10 - - - -
31/07:00pm 26.8 ESE 7 11 1012.9 - 0.8 - Partly cloudy 10 - - - -
31/06:30pm 27.0 SE 9 15 1012.5 - 0.8 - Partly cloudy 10 - - - -
31/06:00pm 27.1 ESE 11 16 1012.1 - 0.8 - Mostly cloudy 10 - - - -
31/05:30pm 27.0 ESE 10 17 1012.0 - 0.8 - Partly cloudy 10 - - - -
31/05:00pm 27.0 ESE 10 15 1011.9 - 0.8 - Partly cloudy 10 - - - -
31/04:30pm 25.9 E 7 11 1011.8 - 0.8 - Partly cloudy 10 - - - -
31/04:27pm 25.9 E 8 13 1011.7 - 0.8 - Partly cloudy 10 - - - -
31/04:10pm 25.4 ESE 14 21 1011.8 - 0.8 - Partly cloudy 5 - - - -
31/04:01pm 27.3 ESE 11 18 1011.6 - 0.8 - Partly cloudy - - - - -
31/04:00pm 27.2 ESE 12 18 1011.5 - 0.8 - Partly cloudy - - - - -
31/03:30pm 25.7 E 13 19 1011.8 - 0.8 - - - - - - -
31/03:00pm - ESE 15 22 1011.8 - 0.8 Recent precip. Cloudy 20 - - - -
31/02:06pm 28.0 ESE 11 15 1012.3 - 0.4 - Partly cloudy 4 - - - -
31/02:04pm 28.0 ESE 12 15 1012.3 - 0.4 - Partly cloudy 5 - - - -
31/02:01pm 27.9 ESE 12 16 1012.3 - 0.4 - Partly cloudy 10 - - - -
31/02:00pm 28.0 ESE 12 16 1012.3 - 0.4 - Partly cloudy 10 - - - -
31/01:30pm 27.4 ESE 13 17 1012.6 - 0.4 - Partly cloudy 10 - - - -
31/01:23pm 27.4 ESE 12 17 1012.6 - 0.4 - Partly cloudy 10 - - - -
31/01:09pm 26.9 E 16 24 1012.7 - 0.4 - Partly cloudy 5 - - - -
31/01:00pm 28.7 ESE 11 16 1012.8 - 0.0 - Partly cloudy 10 - - - -
31/12:45pm 28.6 ESE 13 20 1012.9 - 0.0 - Partly cloudy 10 - - - -
31/12:30pm 28.8 ESE 11 17 1013.2 - 0.0 - Partly cloudy 10 - - - -
31/12:00pm 30.1 ESE 14 23 1013.7 - 0.0 - Cloudy 10 - - - -
31/11:30am 29.3 ESE 13 21 1014.3 - 0.0 - Partly cloudy 10 - - - -
31/11:00am 29.6 E 14 23 1014.7 - 0.0 - Partly cloudy 10 - - - -
31/10:30am 28.3 ESE 12 18 1014.9 - 0.0 - Partly cloudy 10 - - - -
31/10:00am 28.8 ESE 14 19 1015.0 - 0.0 - Partly cloudy 10 - - - -
31/09:30am 28.8 ESE 14 22 1014.9 - 0.0 - Partly cloudy 10 - - - -
31/09:00am 28.3 ESE 11 21 1014.7 R 6.8 Fine Mostly cloudy 30 - - - -
31/08:30am 28.8 ESE 10 17 1014.5 - 6.8 - Partly cloudy 10 - - - -
31/08:00am 28.1 ESE 12 18 1014.2 - 6.8 - Partly cloudy 10 - - - -
31/07:30am 26.7 SE 8 12 1014.0 - 6.8 - Partly cloudy 10 - - - -
31/07:14am 26.2 SSE 7 12 1013.8 - 6.8 - Partly cloudy 10 - - - -
31/07:04am 26.3 SE 9 15 1013.7 - 6.8 - Partly cloudy 10 - - - -
31/07:00am 26.4 SE 9 15 1013.6 - 6.8 - Partly cloudy 10 - - - -
31/06:52am 26.3 SE 11 19 1013.6 - 6.8 - Partly cloudy 10 - - - -
31/06:37am 26.4 SE 7 13 1013.3 - 6.8 - Partly cloudy 10 - - - -
31/06:34am 26.3 SE 8 13 1013.3 - 6.8 - Partly cloudy 10 - - - -
31/06:30am 26.4 SE 7 13 1013.2 - 6.8 - Partly cloudy 10 - - - -
31/06:18am 26.4 SSE 7 12 1013.1 - 6.8 - Partly cloudy 10 - - - -
31/06:00am 26.3 SE 8 10 1012.9 - 6.8 - Cloudy 10 - - - -
31/05:30am 26.4 SE 7 12 1012.8 - 6.8 - Partly cloudy 10 - - - -
31/05:00am 26.3 SE 8 15 1012.6 - 6.8 - Partly cloudy 10 - - - -
31/04:30am 26.2 ESE 8 12 1012.4 - 6.8 - Partly cloudy 10 - - - -
31/04:00am 26.1 SE 8 14 1012.4 - 6.8 - Partly cloudy 10 - - - -
31/03:30am 26.1 ESE 10 17 1012.5 - 6.8 - Partly cloudy 10 - - - -
31/03:00am 25.7 ESE 10 15 1012.6 - 6.8 - Cloudy 6 - - - -
31/02:30am 26.4 SE 9 15 1012.9 - 6.2 - Partly cloudy 10 - - - -
31/02:00am 26.1 ESE 9 16 1013.1 - 6.2 - Partly cloudy 10 - - - -
31/01:30am 25.8 SE 8 14 1013.5 - 6.2 - Partly cloudy 10 - - - -
31/01:02am 25.5 SE 6 9 1013.9 - 6.2 - Partly cloudy 10 - - - -
31/01:00am 25.5 SE 6 9 1013.9 - 6.2 - Partly cloudy 10 - - - -
31/12:34am 25.0 ESE 7 12 1014.5 - 6.2 - Partly cloudy 10 - - - -
31/12:30am 24.9 E 8 13 1014.5 - 6.2 - Partly cloudy 8 - - - -
31/12:04am 24.6 S 1 4 1014.8 - 5.4 - Partly cloudy 5 - - - -
31/12:00am 24.6 SSW 4 6 1014.7 - 4.8 - Cloudy 10 - - - -
 
Date/Time
EST
Temp

°C
Wind Pressure Rain
since 9am
mm
Weather Cloud Vis
km
Sea
Height
m
Swell
Dir
 
Speed
knots
Gust
knots
hPa Trend Height
m
Period
s
Dir
30/11:54pm 24.5 S 3 6 1014.9 - 4.8 - Partly cloudy 10 - - - -
30/11:44pm 24.4 SE 2 4 1015.0 - 4.8 - Partly cloudy 10 - - - -
30/11:38pm 24.3 ESE 4 7 1015.0 - 4.8 - Partly cloudy 10 - - - -
30/11:30pm 24.3 E 6 9 1015.2 - 4.8 - Partly cloudy 4 - - - -
30/11:20pm 24.3 E 10 15 1015.4 - 4.6 - Partly cloudy 4 - - - -
30/11:14pm 24.3 E 11 17 1015.4 - 4.4 - Partly cloudy 4 - - - -
30/11:00pm 24.3 E 14 23 1015.5 - 3.8 - Partly cloudy 4 - - - -
30/10:59pm 24.2 E 14 23 1015.5 - 3.8 - Partly cloudy 3 - - - -
30/10:46pm 24.7 E 18 28 1015.4 - 1.4 - Partly cloudy 3 - - - -
30/10:44pm 24.9 E 20 28 1015.5 - 1.0 - Partly cloudy 4 - - - -
30/10:43pm 25.3 E 21 28 1015.5 - 0.0 - Partly cloudy 8 - - - -
30/10:30pm 26.3 ESE 9 13 1015.2 - 0.0 - Cloudy 10 - - - -
30/10:00pm 27.4 SE 11 16 1015.4 - 0.0 - Partly cloudy 10 - - - -
30/09:30pm 27.2 SE 10 16 1015.3 - 0.0 - Partly cloudy 10 - - - -
30/09:00pm 27.1 SE 7 10 1015.1 - 0.0 - Cloudy 10 - - - -
30/08:30pm 27.1 SE 8 13 1014.9 - 0.0 - Partly cloudy 10 - - - -
30/08:00pm 27.1 SE 9 13 1014.7 - 0.0 - Partly cloudy 10 - - - -
30/07:30pm 27.1 SE 8 12 1014.4 - 0.0 - Partly cloudy 10 - - - -
30/07:00pm 27.2 SE 8 12 1014.2 - 0.0 - Partly cloudy 10 - - - -
30/06:30pm 27.1 SE 9 15 1013.9 - 0.0 - Partly cloudy 10 - - - -
30/06:00pm 27.4 SE 8 13 1013.7 - 0.0 - Mostly cloudy 10 - - - -
30/05:30pm 27.8 SE 10 18 1013.7 - 0.0 - Partly cloudy 10 - - - -
30/05:00pm 27.8 SE 11 19 1013.7 - 0.0 - Partly cloudy 10 - - - -
30/04:30pm 28.2 SE 12 19 1013.5 - 0.0 - Partly cloudy 10 - - - -
30/04:00pm 27.9 ESE 13 22 1013.3 - 0.0 - Partly cloudy 10 - - - -
30/03:30pm 28.7 SE 12 22 1013.3 - 0.0 - Partly cloudy 10 - - - -
30/03:00pm 28.1 ESE 15 21 1013.2 S 0.0 Fine Partly cloudy 35 - - - -
30/02:48pm 28.4 ESE 16 26 1013.3 - 0.0 - Partly cloudy 10 - - - -
30/02:30pm 29.0 SE 16 23 1013.2 - 0.0 - Partly cloudy 10 - - - -
30/02:10pm 28.7 ESE 15 25 1013.4 - 0.0 - Partly cloudy 10 - - - -
30/02:00pm 29.1 ESE 16 23 1013.4 - 0.0 - Partly cloudy 10 - - - -
30/01:35pm 28.9 ESE 15 28 1013.7 - 0.0 - Partly cloudy 10 - - - -
30/01:30pm 29.1 ESE 15 21 1013.9 - 0.0 - Partly cloudy 10 - - - -
30/01:00pm 29.1 ESE 14 25 1014.2 - 0.0 - Partly cloudy 10 - - - -
30/12:30pm 28.4 ESE 14 22 1014.5 - 0.0 - Partly cloudy 10 - - - -
30/12:00pm 28.7 ESE 15 22 1014.8 - 0.0 - Cloudy 10 - - - -
30/11:30am 28.6 ESE 15 24 1015.4 - 0.0 - Partly cloudy 10 - - - -
30/11:00am 29.1 ESE 14 22 1015.7 - 0.0 - Partly cloudy 10 - - - -
30/10:30am 28.5 ESE 16 22 1015.8 - 0.0 - Partly cloudy 10 - - - -
30/10:00am 28.2 ESE 10 15 1015.8 - 0.0 - Cloudy 10 - - - -
30/09:30am 27.3 ESE 11 16 1015.9 - 0.0 - Partly cloudy 10 - - - -
30/09:04am 25.8 ESE 16 26 1016.0 - 0.0 - Partly cloudy 8 - - - -
30/09:00am 25.8 ESE 18 26 1016.1 - 32.6 - Partly cloudy 10 - - - -
30/08:30am 27.8 ESE 12 21 1015.5 - 32.6 - - 10 - - - -
30/08:00am 27.6 SE 12 21 1015.0 - 32.6 - - 10 - - - -
30/07:30am 27.3 ESE 13 19 1014.7 - 32.6 - Partly cloudy 10 - - - -
30/07:00am 26.8 ESE 11 20 1014.4 - 32.6 - Partly cloudy 10 - - - -
30/06:30am 26.3 ESE 11 17 1014.3 - 32.6 - Partly cloudy 10 - - - -
30/06:00am 26.3 ESE 11 18 1013.8 - 0.0 - Mostly cloudy 10 - - - -
30/05:30am 26.0 ESE 11 15 1013.5 - 0.0 - Partly cloudy 10 - - - -
30/05:00am 26.1 ESE 12 16 1013.2 - 0.0 - Partly cloudy 10 - - - -
30/04:30am 26.2 ESE 11 16 1013.1 - 0.0 - Partly cloudy 10 - - - -
30/04:00am 26.0 ESE 10 16 1012.9 - 0.0 - Partly cloudy 10 - - - -
30/03:30am 25.4 ESE 9 14 1012.8 - 0.0 - Partly cloudy 10 - - - -
30/03:00am 25.1 ESE 6 12 1012.8 - 0.0 - Cloudy 10 - - - -
30/02:30am 24.7 ESE 6 10 1013.4 - 0.0 - Partly cloudy 10 - - - -
30/02:14am 24.5 ESE 9 12 1013.7 - 0.0 - Partly cloudy 10 - - - -
30/02:00am 24.5 ESE 12 17 1014.0 - 0.0 - Partly cloudy 4 - - - -
30/01:58am 24.6 ESE 13 17 1014.0 - 0.0 - Partly cloudy 3 - - - -
30/01:30am 24.0 ESE 13 21 1014.6 - 0.0 - Partly cloudy 2 - - - -
30/01:00am 24.2 SSE 8 17 1014.8 - 0.0 - Partly cloudy 0.8 - - - -
30/12:58am 24.2 SE 8 17 1014.8 - 0.0 - Partly cloudy 0.8 - - - -
30/12:30am 23.9 SE 9 13 1015.1 - 0.0 - Partly cloudy 3 - - - -
30/12:00am 24.1 ESE 12 17 1015.3 - 0.0 - Cloudy 4 - - - -
 
Date/Time
EST
Temp

°C
Wind Pressure Rain
since 9am
mm
Weather Cloud Vis
km
Sea
Height
m
Swell
Dir
 
Speed
knots
Gust
knots
hPa Trend Height
m
Period
s
Dir
29/11:41pm 24.0 E 13 19 1015.6 - 0.0 - Partly cloudy 5 - - - -
29/11:30pm 23.9 E 16 24 1015.6 - 0.0 - Partly cloudy 3 - - - -
29/11:16pm 25.0 ESE 9 16 1015.4 - 0.0 - Partly cloudy 4 - - - -
29/11:15pm 25.0 ESE 9 12 1015.4 - 0.0 - Partly cloudy 6 - - - -
29/11:03pm 25.0 ESE 12 18 1015.5 - 0.0 - Partly cloudy 4 - - - -
29/11:00pm 25.0 ESE 12 18 1015.6 - 0.0 - Partly cloudy 4 - - - -
29/10:57pm 25.1 ESE 12 17 1015.6 - 0.0 - Partly cloudy 5 - - - -
29/10:30pm 26.0 SE 13 19 1015.3 - 0.0 - Partly cloudy 10 - - - -
29/10:00pm 26.2 SE 10 16 1015.4 - 0.0 - Partly cloudy 10 - - - -
29/09:30pm 25.7 ESE 10 15 1015.4 - 0.0 - Partly cloudy 10 - - - -
29/09:18pm 25.7 SE 11 18 1015.3 - 0.0 - Partly cloudy 8 - - - -
29/09:03pm 26.4 SE 9 15 1015.2 - 0.0 - Partly cloudy 10 - - - -
29/09:00pm 26.4 SE 10 16 1015.1 - 0.0 - Cloudy 10 - - - -
29/08:50pm 26.3 SE 9 15 1015.2 - 0.0 - Partly cloudy 10 - - - -
29/08:32pm 25.8 SE 8 16 1015.0 - 0.0 - Partly cloudy 10 - - - -
29/08:30pm 25.6 SE 9 15 1015.0 - 0.0 - Partly cloudy 10 - - - -
29/08:00pm 25.1 ESE 6 10 1014.9 - 0.0 - Partly cloudy 10 - - - -
29/07:51pm 25.3 SE 9 13 1014.9 - 0.0 - Partly cloudy 9 - - - -
29/07:39pm 25.9 SE 9 16 1014.8 - 0.0 - Partly cloudy 5 - - - -
29/07:30pm 26.8 SE 6 8 1014.5 - 0.0 - Partly cloudy 10 - - - -
29/07:00pm 26.8 SE 7 14 1014.4 - 0.0 - Partly cloudy 10 - - - -
29/06:30pm 26.9 SE 7 10 1014.0 - 0.0 - Partly cloudy 10 - - - -
29/06:00pm 26.7 ESE 9 12 1013.5 - 0.0 - Cloudy 10 - - - -
29/05:30pm 27.6 SE 10 17 1013.2 - 0.0 - Partly cloudy 10 - - - -
29/05:00pm 27.8 SE 12 20 1013.0 - 0.0 - Partly cloudy 10 - - - -
29/04:30pm 28.1 SE 11 20 1013.0 - 0.0 - Partly cloudy 10 - - - -
29/04:00pm 26.4 SE 6 8 1012.9 - 0.0 - Partly cloudy 10 - - - -
29/03:44pm 25.6 SE 5 7 1012.9 - 0.0 - Partly cloudy 10 - - - -
29/03:30pm 25.6 ESE 9 15 1013.0 - 0.0 - Partly cloudy 5 - - - -
29/03:03pm 26.7 SE 10 15 1013.0 - 0.0 - Partly cloudy 5 - - - -
29/03:00pm 26.8 SE 11 17 1012.9 F 0.0 Drizzle Cloudy 7 - - - -
29/02:30pm 27.6 SE 11 17 1013.1 - 0.0 - Partly cloudy 10 - - - -
29/02:00pm 26.2 SSE 9 14 1013.4 - 0.0 - Partly cloudy 10 - - - -
29/01:51pm 25.9 SE 9 13 1013.6 - 0.0 - Partly cloudy 10 - - - -
29/01:31pm 25.2 SE 10 15 1014.0 - 0.0 - Partly cloudy 10 - - - -
29/01:30pm 25.2 SE 10 15 1014.0 - 0.0 - Partly cloudy 10 - - - -
29/01:00pm 25.3 ESE 7 11 1014.3 - 0.0 - Partly cloudy 4 - - - -
29/12:58pm 25.4 ESE 7 11 1014.3 - 0.0 - Partly cloudy 5 - - - -
29/12:35pm 25.5 SSE 8 11 1014.7 - 0.0 - Partly cloudy 10 - - - -
29/12:30pm 25.9 SSE 8 11 1014.8 - 0.0 - Partly cloudy 10 - - - -
29/12:00pm 25.0 ESE 12 18 1015.3 - 0.0 - Cloudy 3 - - - -
29/11:55am 25.7 ESE 10 14 1015.3 - 0.0 - Partly cloudy 5 - - - -
29/11:31am 27.3 SE 11 18 1015.3 - 0.0 - Partly cloudy 10 - - - -
29/11:30am 27.3 SE 11 18 1015.3 - 0.0 - Partly cloudy 10 - - - -
29/11:12am 27.3 SE 12 19 1015.6 - 0.0 - Partly cloudy 10 - - - -
29/11:00am 27.0 SE 12 19 1015.6 - 0.0 - Partly cloudy 10 - - - -
29/10:30am 26.8 SE 11 21 1015.8 - 0.0 - Partly cloudy 9 - - - -
29/10:00am 27.2 SE 10 16 1015.7 - 0.0 - Partly cloudy 10 - - - -

Other Formats:

Comma delimited format used in spreadsheet applications
http://www.bom.gov.au/fwo/IDQ60701/IDQ60701.95283.axf

JavaScript Object Notation format (JSON) in row-major order
http://www.bom.gov.au/fwo/IDQ60701/IDQ60701.95283.json